Time;durP1;ratioP1;P1;durP2;ratioP2;P2;SDS_P1;SDS_P2;PMS_P1;PMS_P2;Temp;Humidity;BMP_temperature;BMP_pressure;BME280_temperature;BME280_humidity;BME280_pressure;Samples;Min_cycle;Max_cycle;Signal;HPM_P1;HPM_P2
2022/11/11 00:00:50;;;;;;;8.48;4.28;;;12.00;99.90;;;;;;4996142;28;20093;-83
2022/11/11 00:03:16;;;;;;;9.73;4.35;;;11.90;99.90;;;;;;4996009;28;20026;-83
2022/11/11 00:05:42;;;;;;;14.88;5.28;;;12.00;99.90;;;;;;4996025;28;20022;-83
2022/11/11 00:08:07;;;;;;;12.45;4.80;;;11.90;99.90;;;;;;4995652;28;20045;-83
2022/11/11 00:10:33;;;;;;;9.38;4.55;;;11.80;99.90;;;;;;5004699;28;20022;-83
2022/11/11 00:13:00;;;;;;;9.93;4.85;;;11.90;99.90;;;;;;5015045;28;20539;-83
2022/11/11 00:15:26;;;;;;;13.98;5.38;;;12.00;99.90;;;;;;5015547;28;20026;-83
2022/11/11 00:26:09;;;;;;;14.40;5.60;;;12.00;99.90;;;;;;4996115;28;20084;-83
2022/11/11 00:28:34;;;;;;;9.00;5.50;;;12.00;99.90;;;;;;4995794;28;20477;-83
2022/11/11 00:31:11;;;;;;;12.10;5.20;;;11.90;99.90;;;;;;4995363;28;20028;-83
2022/11/11 00:33:38;;;;;;;13.82;5.50;;;12.00;99.90;;;;;;4995772;28;20027;-83
2022/11/11 00:36:05;;;;;;;13.50;5.75;;;11.90;99.90;;;;;;5003554;28;20027;-83
2022/11/11 00:38:45;;;;;;;8.98;5.00;;;11.90;99.90;;;;;;4995564;28;20038;-83
2022/11/11 00:41:17;;;;;;;10.32;5.45;;;11.90;99.90;;;;;;4996149;28;20027;-83
2022/11/11 00:43:44;;;;;;;14.18;5.53;;;11.90;99.90;;;;;;4995533;28;20038;-83
2022/11/11 00:51:46;;;;;;;12.80;5.57;;;11.80;99.90;;;;;;5015496;28;20088;-83
2022/11/11 00:54:12;;;;;;;10.30;5.07;;;11.90;99.90;;;;;;5006693;28;20026;-83
2022/11/11 00:56:38;;;;;;;11.10;6.25;;;11.90;99.90;;;;;;4995301;28;20027;-83
2022/11/11 00:59:05;;;;;;;9.90;5.32;;;12.10;99.90;;;;;;4996436;28;20022;-83
2022/11/11 01:01:35;;;;;;;13.13;5.63;;;11.90;99.90;;;;;;5002135;28;20446;-83
2022/11/11 01:04:01;;;;;;;9.80;5.65;;;11.90;99.90;;;;;;5014686;28;20467;-83
2022/11/11 01:06:27;;;;;;;16.88;5.72;;;11.90;99.90;;;;;;4995552;28;20493;-83
2022/11/11 01:08:53;;;;;;;12.68;5.53;;;12.00;99.90;;;;;;4995404;28;20029;-83
2022/11/11 01:11:21;;;;;;;13.07;5.28;;;11.90;99.90;;;;;;4995613;28;20385;-83
2022/11/11 01:13:47;;;;;;;16.30;5.80;;;11.80;99.90;;;;;;4995184;28;20053;-83
2022/11/11 01:16:16;;;;;;;16.40;5.60;;;11.80;99.90;;;;;;4996759;28;20022;-83
2022/11/11 01:18:41;;;;;;;12.98;6.10;;;11.80;99.90;;;;;;5014870;28;20034;-83
2022/11/11 01:21:13;;;;;;;12.27;5.40;;;11.90;99.90;;;;;;5015301;28;20046;-83
2022/11/11 01:23:39;;;;;;;;;;;12.00;99.90;;;;;;5015390;28;20088;-83
2022/11/11 01:26:10;;;;;;;12.60;5.40;;;12.00;99.90;;;;;;5015053;28;19905;-83
2022/11/11 01:28:35;;;;;;;;;;;11.90;99.90;;;;;;5015348;28;20559;-83
2022/11/11 01:31:21;;;;;;;10.95;5.18;;;12.00;99.90;;;;;;5024337;28;20650;-83
2022/11/11 01:33:47;;;;;;;12.45;6.00;;;12.00;99.90;;;;;;5034460;28;20018;-83
2022/11/11 01:36:25;;;;;;;19.40;6.28;;;12.00;99.90;;;;;;4995672;28;20015;-83
2022/11/11 01:38:53;;;;;;;11.82;5.25;;;12.10;99.90;;;;;;4998568;28;20081;-83
2022/11/11 01:41:34;;;;;;;10.02;4.90;;;12.10;99.90;;;;;;4999971;28;20375;-83
2022/11/11 01:44:11;;;;;;;11.05;5.53;;;11.90;99.90;;;;;;5018196;28;20049;-83
2022/11/11 01:46:48;;;;;;;15.70;5.32;;;12.10;99.90;;;;;;5016737;28;20080;-83
2022/11/11 01:49:19;;;;;;;12.18;5.00;;;12.20;99.90;;;;;;5028899;28;20117;-83
2022/11/11 01:52:05;;;;;;;11.35;5.22;;;12.10;99.90;;;;;;5028255;28;20033;-83
2022/11/11 01:54:31;;;;;;;10.80;4.85;;;12.20;99.90;;;;;;5017963;28;20396;-83
2022/11/11 01:57:35;;;;;;;10.60;4.95;;;12.10;99.90;;;;;;5018056;28;20026;-83
2022/11/11 02:00:09;;;;;;;12.73;5.30;;;12.20;99.90;;;;;;5017931;28;20487;-83
2022/11/11 02:02:46;;;;;;;13.10;5.35;;;12.20;99.90;;;;;;5018174;28;20045;-83
2022/11/11 02:08:04;;;;;;;9.88;4.90;;;12.20;99.90;;;;;;5004987;28;20404;-83
2022/11/11 02:10:32;;;;;;;9.50;5.13;;;12.20;99.90;;;;;;5017859;28;20040;-83
2022/11/11 02:15:43;;;;;;;9.90;4.80;;;12.20;99.90;;;;;;5018004;28;20104;-83
2022/11/11 02:18:10;;;;;;;13.07;5.18;;;12.20;99.90;;;;;;5017874;28;20057;-83
2022/11/11 02:20:38;;;;;;;9.90;5.07;;;12.30;99.90;;;;;;5018826;28;20030;-83
2022/11/11 02:23:36;;;;;;;11.02;4.80;;;12.20;99.90;;;;;;5037201;28;20379;-83
2022/11/11 02:26:04;;;;;;;15.07;5.50;;;12.10;99.90;;;;;;5030734;28;20042;-83
2022/11/11 02:28:32;;;;;;;11.60;4.80;;;12.20;99.90;;;;;;5017086;28;20038;-83
2022/11/11 02:30:58;;;;;;;14.20;5.50;;;12.20;99.90;;;;;;5010706;28;20049;-83
2022/11/11 02:33:23;;;;;;;11.23;5.10;;;12.20;99.90;;;;;;5010597;28;20014;-83
2022/11/11 02:35:57;;;;;;;10.38;5.72;;;12.30;99.90;;;;;;5017318;28;20079;-83
2022/11/11 02:38:24;;;;;;;11.63;5.45;;;12.20;99.90;;;;;;5017271;28;20033;-83
2022/11/11 02:43:34;;;;;;;9.48;4.88;;;12.20;99.90;;;;;;5017681;28;20045;-83
2022/11/11 02:46:02;;;;;;;12.32;5.75;;;12.10;99.90;;;;;;5013165;28;20026;-83
2022/11/11 02:48:28;;;;;;;7.97;5.35;;;12.10;99.90;;;;;;4996327;28;20164;-83
2022/11/11 02:50:54;;;;;;;11.35;5.90;;;12.10;99.90;;;;;;4997094;28;20497;-83
2022/11/11 02:53:20;;;;;;;11.30;6.07;;;12.10;99.90;;;;;;4997163;28;20199;-83
2022/11/11 02:55:46;;;;;;;14.80;6.47;;;12.10;99.90;;;;;;5017014;28;20021;-83
2022/11/11 02:58:13;;;;;;;12.43;6.65;;;12.10;99.90;;;;;;5023077;28;20081;-83
2022/11/11 03:00:39;;;;;;;11.32;6.53;;;12.00;99.90;;;;;;5016401;28;20104;-83
2022/11/11 03:03:04;;;;;;;9.75;5.80;;;12.10;99.90;;;;;;5016771;28;20053;-83
2022/11/11 03:05:30;;;;;;;14.00;6.85;;;12.10;99.90;;;;;;5016835;28;20101;-83
2022/11/11 03:07:56;;;;;;;10.90;6.22;;;11.90;99.90;;;;;;5016756;28;20392;-83
2022/11/11 03:10:21;;;;;;;11.07;6.82;;;11.90;99.90;;;;;;5016704;28;20018;-83
2022/11/11 03:12:47;;;;;;;11.25;6.65;;;12.00;99.90;;;;;;5016921;28;20022;-83
2022/11/11 03:15:13;;;;;;;13.95;7.53;;;12.00;99.90;;;;;;5016265;28;20030;-83
2022/11/11 03:17:38;;;;;;;10.68;6.57;;;12.00;99.90;;;;;;5016629;28;20033;-83
2022/11/11 03:23:04;;;;;;;12.57;7.50;;;12.00;99.90;;;;;;5017181;28;20045;-83
2022/11/11 03:25:39;;;;;;;15.55;7.63;;;11.90;99.90;;;;;;5016547;28;20400;-84
2022/11/11 03:28:08;;;;;;;12.98;7.30;;;11.90;99.90;;;;;;5016745;28;20036;-83
2022/11/11 03:30:35;;;;;;;12.05;7.95;;;11.90;99.90;;;;;;5016547;28;20164;-83
2022/11/11 03:33:01;;;;;;;14.15;9.00;;;11.90;99.90;;;;;;5016244;28;20041;-83
2022/11/11 03:35:27;;;;;;;19.80;8.88;;;11.80;99.90;;;;;;5016262;28;20034;-83
2022/11/11 03:40:37;;;;;;;19.70;8.90;;;11.70;99.90;;;;;;4998577;28;20036;-83
2022/11/11 03:43:03;;;;;;;17.50;9.48;;;11.70;99.90;;;;;;4996433;28;20026;-83
2022/11/11 03:45:29;;;;;;;16.60;9.52;;;11.70;99.90;;;;;;4996770;28;20042;-83
2022/11/11 03:47:54;;;;;;;20.63;10.02;;;11.70;99.90;;;;;;4996566;28;20096;-83
2022/11/11 03:50:21;;;;;;;19.52;10.07;;;11.70;99.90;;;;;;4996426;28;20022;-83
2022/11/11 03:52:47;;;;;;;23.30;10.88;;;11.70;99.90;;;;;;4996556;28;20454;-83
2022/11/11 03:55:13;;;;;;;16.90;10.40;;;11.70;99.90;;;;;;5008282;28;20024;-83
2022/11/11 03:57:44;;;;;;;20.10;9.88;;;11.70;99.90;;;;;;5035687;28;20100;-83
2022/11/11 04:00:14;;;;;;;20.25;10.38;;;11.70;99.90;;;;;;5035470;28;20021;-83
2022/11/11 04:10:59;;;;;;;17.88;10.30;;;11.60;99.90;;;;;;5005725;28;20084;-83
2022/11/11 04:16:10;;;;;;;22.92;11.35;;;11.60;99.90;;;;;;4995894;28;20389;-83
2022/11/11 04:26:53;;;;;;;22.48;11.60;;;11.60;99.90;;;;;;4996169;28;20053;-83
2022/11/11 04:29:28;;;;;;;20.80;11.73;;;11.60;99.90;;;;;;4995905;28;20023;-83
2022/11/11 04:34:45;;;;;;;22.23;11.98;;;11.60;99.90;;;;;;4995901;28;20112;-83
2022/11/11 04:37:11;;;;;;;19.35;11.77;;;11.40;99.90;;;;;;4995855;28;20035;-83
2022/11/11 04:42:21;;;;;;;21.60;12.48;;;11.10;99.90;;;;;;4996991;28;20037;-83
2022/11/11 04:47:31;;;;;;;24.08;12.27;;;10.60;99.90;;;;;;4997877;28;20061;-83
2022/11/11 04:49:56;;;;;;;23.38;11.90;;;10.60;99.90;;;;;;5015411;28;20388;-82
2022/11/11 04:52:25;;;;;;;24.98;13.55;;;10.60;99.90;;;;;;5015446;28;20093;-82
2022/11/11 04:57:39;;;;;;;27.58;14.00;;;10.30;99.90;;;;;;5015292;28;20084;-83
2022/11/11 05:00:05;;;;;;;27.45;14.32;;;10.20;99.90;;;;;;5010325;28;20077;-83
2022/11/11 05:05:15;;;;;;;28.40;14.40;;;10.20;99.90;;;;;;5004368;28;20138;-83
2022/11/11 05:10:24;;;;;;;22.15;14.32;;;10.10;99.90;;;;;;5015727;28;20032;-83
2022/11/11 05:12:50;;;;;;;27.55;14.88;;;10.20;99.90;;;;;;5017117;28;20105;-83
2022/11/11 05:21:22;;;;;;;27.00;14.50;;;10.50;99.90;;;;;;5018916;28;20045;-83
2022/11/11 05:26:33;;;;;;;28.42;14.82;;;10.60;99.90;;;;;;5012711;28;20089;-83
2022/11/11 05:28:59;;;;;;;34.78;16.50;;;10.60;99.90;;;;;;4999015;28;20030;-83
2022/11/11 05:31:25;;;;;;;29.80;15.52;;;10.60;99.90;;;;;;5008836;28;20101;-83
2022/11/11 05:33:50;;;;;;;31.55;14.90;;;10.50;99.90;;;;;;5018482;28;20048;-83
2022/11/11 05:36:16;;;;;;;28.63;14.90;;;10.70;99.90;;;;;;5018626;28;20026;-83
2022/11/11 05:38:42;;;;;;;30.70;14.82;;;10.40;99.90;;;;;;5011715;28;20025;-83
2022/11/11 05:41:08;;;;;;;27.45;16.00;;;10.40;99.90;;;;;;5000067;28;20029;-83
2022/11/11 05:43:34;;;;;;;31.27;15.40;;;10.40;99.90;;;;;;5007609;28;20026;-83
2022/11/11 05:45:59;;;;;;;30.02;16.13;;;10.60;99.90;;;;;;5009338;28;20073;-83
2022/11/11 05:48:25;;;;;;;31.48;16.15;;;10.50;99.90;;;;;;4998262;28;20030;-83
2022/11/11 05:50:50;;;;;;;30.27;15.43;;;10.60;99.90;;;;;;4997810;28;20109;-83
2022/11/11 05:53:22;;;;;;;30.67;15.75;;;10.60;99.90;;;;;;5002251;28;20025;-83
2022/11/11 05:55:49;;;;;;;31.33;16.05;;;10.70;99.90;;;;;;5016799;28;20087;-83
2022/11/11 05:58:16;;;;;;;30.92;16.30;;;10.70;99.90;;;;;;5002342;28;20022;-83
2022/11/11 06:00:42;;;;;;;33.63;17.13;;;10.70;99.90;;;;;;5015751;28;20113;-83
2022/11/11 06:03:08;;;;;;;27.17;15.40;;;10.70;99.90;;;;;;5018788;28;20053;-82
2022/11/11 06:05:35;;;;;;;31.65;16.23;;;10.90;99.90;;;;;;5018019;28;20458;-83
2022/11/11 06:08:01;;;;;;;29.95;15.82;;;10.80;99.90;;;;;;5017690;28;20403;-83
2022/11/11 06:10:29;;;;;;;30.20;17.50;;;10.80;99.90;;;;;;5007228;28;20023;-83
2022/11/11 06:13:01;;;;;;;32.00;16.80;;;10.90;99.90;;;;;;4997660;28;20058;-83
2022/11/11 06:15:27;;;;;;;32.30;16.05;;;10.80;99.90;;;;;;5001249;28;20034;-82
2022/11/11 06:17:53;;;;;;;29.27;16.13;;;11.00;99.90;;;;;;5011377;28;20392;-82
2022/11/11 06:20:19;;;;;;;30.73;16.70;;;11.00;99.90;;;;;;5020064;28;20030;-82
2022/11/11 06:22:57;;;;;;;35.72;17.00;;;10.90;99.90;;;;;;5018153;28;20030;-84
2022/11/11 06:28:09;;;;;;;31.23;16.45;;;11.00;99.90;;;;;;5019518;28;20040;-83
2022/11/11 06:30:35;;;;;;;31.05;16.73;;;11.00;99.90;;;;;;5000249;28;20448;-83
2022/11/11 06:33:01;;;;;;;33.65;17.63;;;11.00;99.90;;;;;;5013574;28;20121;-83
2022/11/11 06:35:26;;;;;;;34.38;16.77;;;11.00;99.90;;;;;;5001900;28;20022;-83
2022/11/11 06:37:52;;;;;;;37.10;18.05;;;11.00;99.90;;;;;;4999127;28;20054;-83
2022/11/11 06:40:18;;;;;;;33.85;16.92;;;11.10;99.90;;;;;;4999828;28;20035;-83
2022/11/11 06:42:43;;;;;;;37.70;18.05;;;11.00;99.90;;;;;;4999849;28;20105;-83
2022/11/11 06:45:09;;;;;;;33.67;18.25;;;11.10;99.90;;;;;;4999141;28;20065;-82
2022/11/11 06:47:42;;;;;;;39.08;18.75;;;11.00;99.90;;;;;;5007280;28;20030;-82
2022/11/11 06:50:08;;;;;;;34.33;17.67;;;11.10;99.90;;;;;;5000215;28;20532;-83
2022/11/11 06:52:34;;;;;;;35.13;18.80;;;11.10;99.90;;;;;;4999291;28;20477;-82
2022/11/11 06:54:59;;;;;;;36.63;19.17;;;11.10;99.90;;;;;;5006399;28;20022;-83
2022/11/11 06:57:25;;;;;;;34.05;18.63;;;11.10;99.90;;;;;;5039021;28;20108;-83
2022/11/11 06:59:50;;;;;;;36.22;19.38;;;11.10;99.90;;;;;;5025623;28;20034;-82
2022/11/11 07:02:17;;;;;;;32.05;17.90;;;10.90;99.90;;;;;;5019427;28;20026;-82
2022/11/11 07:04:42;;;;;;;35.03;18.75;;;11.10;99.90;;;;;;5015670;28;20097;-82
2022/11/11 07:07:08;;;;;;;36.03;18.58;;;11.10;99.90;;;;;;5004630;28;20153;-82
2022/11/11 07:09:33;;;;;;;37.20;19.35;;;11.10;99.90;;;;;;5018995;28;20018;-82
2022/11/11 07:12:00;;;;;;;35.65;17.98;;;11.10;99.90;;;;;;5008765;28;20018;-82
2022/11/11 07:14:26;;;;;;;39.65;19.33;;;11.10;99.90;;;;;;5018363;28;20046;-82
2022/11/11 07:16:52;;;;;;;33.85;17.98;;;11.20;99.90;;;;;;5015610;28;20141;-83
2022/11/11 07:19:19;;;;;;;35.90;18.63;;;11.20;99.90;;;;;;5010319;28;20370;-82
2022/11/11 07:21:45;;;;;;;32.30;18.08;;;11.20;99.90;;;;;;5014072;28;20030;-82
2022/11/11 07:24:17;;;;;;;32.58;17.77;;;11.20;99.90;;;;;;5009964;28;20034;-82
2022/11/11 07:26:42;;;;;;;33.55;18.08;;;11.10;99.90;;;;;;5006826;28;20033;-83
2022/11/11 07:29:08;;;;;;;34.65;19.65;;;11.20;99.90;;;;;;5009679;28;20026;-82
2022/11/11 07:31:34;;;;;;;36.97;18.63;;;11.20;99.90;;;;;;5003764;28;20030;-82
2022/11/11 07:33:59;;;;;;;35.58;19.50;;;11.20;99.90;;;;;;5013121;28;20025;-82
2022/11/11 07:36:25;;;;;;;35.72;18.35;;;11.20;99.90;;;;;;5018513;28;20061;-82
2022/11/11 07:38:51;;;;;;;33.85;18.02;;;11.20;99.90;;;;;;5010164;28;20041;-82
2022/11/11 07:41:16;;;;;;;31.42;17.20;;;11.20;99.90;;;;;;5017200;28;20064;-82
2022/11/11 07:43:42;;;;;;;30.60;17.73;;;11.20;99.90;;;;;;5004263;28;20465;-82
2022/11/11 07:46:07;;;;;;;33.53;17.90;;;11.30;99.90;;;;;;5004350;28;20058;-82
2022/11/11 07:48:33;;;;;;;33.40;17.08;;;11.30;99.90;;;;;;5002789;28;20061;-82
2022/11/11 07:50:59;;;;;;;31.42;18.20;;;11.30;99.90;;;;;;5003181;28;20109;-82
2022/11/11 07:53:27;;;;;;;35.33;17.67;;;11.30;99.90;;;;;;5010513;28;20029;-82
2022/11/11 07:55:53;;;;;;;35.13;18.50;;;11.30;99.90;;;;;;5008460;28;20037;-82
2022/11/11 07:58:18;;;;;;;33.35;17.80;;;11.30;99.90;;;;;;5006384;28;20018;-82
2022/11/11 08:00:44;;;;;;;33.97;17.83;;;11.30;99.90;;;;;;5005393;28;20384;-82
2022/11/11 08:03:10;;;;;;;35.00;18.15;;;11.30;99.90;;;;;;5013378;28;20032;-82
2022/11/11 08:05:35;;;;;;;34.83;17.52;;;11.40;99.90;;;;;;5003862;28;20093;-82
2022/11/11 08:08:06;;;;;;;31.30;17.90;;;11.40;99.90;;;;;;5006363;28;20105;-82
2022/11/11 08:10:32;;;;;;;29.52;17.60;;;11.40;99.90;;;;;;5003853;28;20045;-82
2022/11/11 08:15:42;;;;;;;28.90;16.80;;;11.50;99.90;;;;;;5004585;28;20036;-82
2022/11/11 08:18:08;;;;;;;33.67;17.55;;;11.60;99.90;;;;;;4997355;28;20109;-82
2022/11/11 08:20:34;;;;;;;35.17;17.33;;;11.60;99.90;;;;;;5010563;28;20026;-83
2022/11/11 08:23:03;;;;;;;32.47;17.40;;;11.70;99.90;;;;;;5005247;28;20022;-83
2022/11/11 08:25:29;;;;;;;31.00;17.38;;;11.60;99.90;;;;;;4996586;28;20461;-82
2022/11/11 08:27:59;;;;;;;34.88;17.95;;;11.50;99.90;;;;;;5010160;28;20087;-82
2022/11/11 08:30:24;;;;;;;33.33;18.10;;;11.60;99.90;;;;;;5002962;28;20026;-82
2022/11/11 08:33:01;;;;;;;33.67;17.55;;;11.70;99.90;;;;;;4996453;28;20029;-82
2022/11/11 08:35:27;;;;;;;31.48;18.63;;;11.60;99.90;;;;;;4996693;28;20029;-82
2022/11/11 08:37:53;;;;;;;34.92;18.55;;;11.50;99.90;;;;;;5014590;28;20018;-82
2022/11/11 08:40:19;;;;;;;35.50;18.35;;;11.50;99.90;;;;;;5015295;28;20026;-82
2022/11/11 08:42:45;;;;;;;37.00;19.52;;;11.60;99.90;;;;;;5010513;28;20431;-81
2022/11/11 08:45:11;;;;;;;36.63;19.95;;;11.70;99.90;;;;;;4995237;28;20058;-81
2022/11/11 08:47:37;;;;;;;33.50;20.02;;;11.60;99.90;;;;;;4997866;28;20038;-82
2022/11/11 08:50:05;;;;;;;31.33;17.05;;;11.60;99.90;;;;;;4998032;28;20113;-82
2022/11/11 08:52:30;;;;;;;35.92;17.80;;;11.60;99.90;;;;;;5007473;28;20026;-81
2022/11/11 08:54:56;;;;;;;32.55;17.48;;;11.60;99.90;;;;;;5021394;28;20013;-82
2022/11/11 08:57:21;;;;;;;29.77;15.95;;;11.60;99.90;;;;;;5022233;28;20503;-82
2022/11/11 08:59:47;;;;;;;34.47;16.50;;;11.60;99.90;;;;;;5010834;28;20101;-82
2022/11/11 09:02:14;;;;;;;31.95;17.83;;;11.80;99.90;;;;;;5004553;28;20040;-82
2022/11/11 09:04:46;;;;;;;30.77;18.85;;;11.60;99.90;;;;;;5002711;28;20040;-82
2022/11/11 09:07:12;;;;;;;42.83;19.02;;;11.70;99.90;;;;;;5019198;28;20022;-82
2022/11/11 09:09:38;;;;;;;37.70;20.58;;;11.80;99.90;;;;;;5008349;28;20026;-82
2022/11/11 09:12:03;;;;;;;35.47;18.45;;;11.80;99.90;;;;;;4999313;28;20018;-82
2022/11/11 09:14:29;;;;;;;33.38;18.08;;;11.80;99.90;;;;;;5015682;28;20128;-82
2022/11/11 09:16:54;;;;;;;33.35;18.33;;;11.80;99.90;;;;;;5018355;28;20018;-82
2022/11/11 09:19:21;;;;;;;33.03;19.05;;;11.90;99.90;;;;;;5014125;28;20045;-82
2022/11/11 09:21:46;;;;;;;36.92;17.90;;;11.80;99.90;;;;;;5017949;28;20029;-82
2022/11/11 09:24:12;;;;;;;36.70;18.30;;;11.80;99.90;;;;;;5019807;28;20071;-82
2022/11/11 09:26:37;;;;;;;36.00;19.98;;;11.90;99.90;;;;;;5009451;28;20097;-82
2022/11/11 09:29:03;;;;;;;37.50;19.17;;;11.90;99.90;;;;;;4999297;28;20034;-82
2022/11/11 09:31:28;;;;;;;32.63;17.88;;;11.80;99.90;;;;;;5007933;28;20027;-82
2022/11/11 09:33:54;;;;;;;34.58;19.95;;;12.00;99.90;;;;;;4999817;28;20022;-82
2022/11/11 09:36:20;;;;;;;33.35;18.70;;;12.00;99.90;;;;;;4999119;28;20023;-82
2022/11/11 09:38:45;;;;;;;35.03;19.48;;;12.00;99.90;;;;;;5015489;28;20036;-83
2022/11/11 09:41:30;;;;;;;38.00;18.98;;;12.00;99.90;;;;;;5013508;28;20431;-82
2022/11/11 09:44:00;;;;;;;34.67;18.88;;;12.10;99.90;;;;;;5018965;28;20128;-82
2022/11/11 09:46:35;;;;;;;;;;;12.10;99.90;;;;;;5016490;28;20028;-82
2022/11/11 09:49:37;;;;;;;30.67;18.10;;;12.20;99.90;;;;;;5014556;28;19905;-82
2022/11/11 09:52:03;;;;;;;31.95;18.42;;;12.30;99.90;;;;;;5010343;28;20034;-82
2022/11/11 09:54:39;;;;;;;31.30;17.95;;;12.30;96.20;;;;;;5016641;28;20097;-83
2022/11/11 09:57:13;;;;;;;32.60;18.30;;;12.30;94.40;;;;;;4996996;28;20032;-82
2022/11/11 09:59:54;;;;;;;31.55;17.73;;;12.30;91.80;;;;;;4996354;28;20160;-83
2022/11/11 10:02:42;;;;;;;31.10;18.05;;;12.30;90.30;;;;;;4996818;28;20119;-82
2022/11/11 10:05:13;;;;;;;33.72;18.90;;;12.50;84.20;;;;;;4996790;28;20113;-82
2022/11/11 10:08:20;;;;;;;37.20;19.85;;;12.50;75.80;;;;;;4996496;28;20022;-82
2022/11/11 10:10:51;;;;;;;29.75;17.88;;;12.60;72.70;;;;;;4994363;28;20616;-83
2022/11/11 10:13:29;;;;;;;32.55;17.83;;;12.60;59.60;;;;;;4996257;28;20046;-83
2022/11/11 10:16:09;;;;;;;34.13;17.30;;;12.50;65.40;;;;;;4996332;28;20025;-83
2022/11/11 10:18:49;;;;;;;31.98;17.77;;;12.70;68.90;;;;;;4996713;28;20030;-83
2022/11/11 10:21:19;;;;;;;33.70;18.08;;;12.80;63.00;;;;;;5001983;28;20090;-83
2022/11/11 10:23:47;;;;;;;31.95;18.25;;;12.80;59.30;;;;;;5016064;28;20060;-83
2022/11/11 10:26:38;;;;;;;33.00;18.95;;;12.70;58.40;;;;;;5003951;28;20026;-83
2022/11/11 10:29:14;;;;;;;31.27;18.52;;;12.80;52.50;;;;;;5020930;28;20049;-85
2022/11/11 10:31:41;;;;;;;35.05;19.05;;;12.80;49.70;;;;;;5016807;28;20018;-85
2022/11/11 10:34:11;;;;;;;28.60;17.33;;;12.80;52.30;;;;;;5014757;28;20022;-84
2022/11/11 10:36:48;;;;;;;29.67;18.20;;;12.90;50.50;;;;;;5016066;28;20057;-84
2022/11/11 10:39:21;;;;;;;31.75;19.15;;;12.80;48.00;;;;;;4996135;28;20489;-84
2022/11/11 10:41:49;;;;;;;28.95;18.38;;;12.90;48.40;;;;;;4996040;28;20014;-84
2022/11/11 10:44:35;;;;;;;30.08;16.42;;;12.80;46.30;;;;;;5001269;28;20025;-84
2022/11/11 10:47:16;;;;;;;26.00;15.90;;;12.80;45.80;;;;;;5009513;28;20105;-85
2022/11/11 10:49:53;;;;;;;28.92;17.25;;;12.80;41.90;;;;;;5002192;28;20030;-84
2022/11/11 10:52:23;;;;;;;28.20;16.88;;;12.70;38.70;;;;;;4996211;28;20425;-84
2022/11/11 10:55:02;;;;;;;30.17;17.75;;;12.70;42.70;;;;;;5005821;28;20034;-84
2022/11/11 10:58:05;;;;;;;30.02;17.35;;;12.80;39.50;;;;;;5008273;28;20385;-84
2022/11/11 11:00:33;;;;;;;29.52;16.25;;;12.70;47.30;;;;;;5009313;28;20040;-84
2022/11/11 11:03:12;;;;;;;30.50;17.35;;;12.70;42.80;;;;;;5001956;28;20018;-84
2022/11/11 11:05:38;;;;;;;29.27;16.00;;;12.70;43.90;;;;;;4996101;28;20052;-84
2022/11/11 11:08:18;;;;;;;23.00;15.23;;;12.70;42.60;;;;;;4996044;28;20033;-84
2022/11/11 11:10:51;;;;;;;27.63;15.07;;;12.70;30.40;;;;;;4995125;28;20034;-84
2022/11/11 11:13:29;;;;;;;27.00;17.08;;;12.70;42.40;;;;;;5014059;28;20077;-85
2022/11/11 11:16:00;;;;;;;29.20;16.58;;;12.60;38.80;;;;;;5017086;28;20468;-83
2022/11/11 11:18:26;;;;;;;25.13;15.25;;;12.70;37.00;;;;;;4996064;28;20394;-83
2022/11/11 11:21:03;;;;;;;29.00;16.33;;;12.60;37.10;;;;;;5008502;28;20034;-84
2022/11/11 11:23:37;;;;;;;31.30;17.80;;;12.80;34.90;;;;;;5002438;28;20109;-84
2022/11/11 11:26:04;;;;;;;31.08;17.05;;;12.80;29.10;;;;;;4996173;28;20113;-83
2022/11/11 11:28:30;;;;;;;30.85;17.00;;;12.80;31.70;;;;;;5005399;28;20029;-84
2022/11/11 11:30:58;;;;;;;29.50;17.33;;;12.80;31.80;;;;;;4998908;28;20030;-83
2022/11/11 11:33:24;;;;;;;29.35;18.35;;;12.80;32.90;;;;;;4996886;28;20022;-83
2022/11/11 11:35:49;;;;;;;30.70;17.10;;;12.80;32.50;;;;;;4998700;28;20692;-84
2022/11/11 11:38:15;;;;;;;30.20;18.10;;;12.80;33.70;;;;;;4996604;28;20030;-84
2022/11/11 11:40:49;;;;;;;28.23;16.10;;;12.90;29.70;;;;;;5008159;28;20026;-83
2022/11/11 11:43:38;;;;;;;30.23;17.77;;;12.80;26.50;;;;;;5006201;28;20093;-83
2022/11/11 11:46:14;;;;;;;28.88;17.13;;;12.90;27.40;;;;;;5009531;28;20033;-83
2022/11/11 11:49:15;;;;;;;31.65;17.75;;;12.80;23.50;;;;;;5002985;28;20018;-83
2022/11/11 11:51:51;;;;;;;28.13;16.85;;;12.80;30.50;;;;;;5005563;28;20025;-83
2022/11/11 11:54:27;;;;;;;37.22;20.38;;;12.70;33.50;;;;;;5015330;28;20419;-83
2022/11/11 11:56:57;;;;;;;31.17;18.27;;;12.70;30.00;;;;;;5031465;28;20040;-83
2022/11/11 12:00:08;;;;;;;27.13;17.45;;;12.70;28.90;;;;;;5010942;28;20034;-84
2022/11/11 12:02:36;;;;;;;29.45;17.27;;;12.70;33.30;;;;;;4994212;28;20044;-83
2022/11/11 12:05:08;;;;;;;31.55;17.52;;;12.80;30.70;;;;;;5020782;28;20029;-84
2022/11/11 12:08:02;;;;;;;31.00;17.30;;;12.90;31.00;;;;;;4998179;28;20030;-84
2022/11/11 12:10:37;;;;;;;30.13;17.52;;;12.80;35.00;;;;;;4995067;28;20421;-84
2022/11/11 12:13:15;;;;;;;29.88;17.45;;;12.80;27.60;;;;;;4998091;28;20537;-83
2022/11/11 12:15:59;;;;;;;27.48;16.52;;;12.90;26.40;;;;;;4994987;28;20022;-84
2022/11/11 12:18:49;;;;;;;30.60;17.02;;;13.00;26.20;;;;;;4998369;28;20027;-84
2022/11/11 12:21:16;;;;;;;31.27;16.50;;;12.90;26.90;;;;;;5009994;28;20514;-84
2022/11/11 12:23:50;;;;;;;26.58;17.85;;;12.90;26.90;;;;;;5014976;28;20057;-83
2022/11/11 12:26:38;;;;;;;32.10;18.00;;;12.90;21.80;;;;;;5014161;28;20041;-84
2022/11/11 12:29:28;;;;;;;28.23;17.50;;;12.90;24.40;;;;;;5007340;28;20473;-84
2022/11/11 12:32:03;;;;;;;29.25;17.33;;;13.00;25.40;;;;;;5003159;28;20038;-84
2022/11/11 12:34:53;;;;;;;30.40;17.25;;;13.10;25.10;;;;;;4998358;28;20031;-84
2022/11/11 12:37:32;;;;;;;30.33;17.00;;;13.10;24.80;;;;;;5012651;28;20069;-84
2022/11/11 12:40:05;;;;;;;29.02;17.90;;;13.00;22.40;;;;;;5007790;28;20053;-84
2022/11/11 12:42:46;;;;;;;28.95;16.80;;;13.10;22.70;;;;;;4994471;28;20108;-84
2022/11/11 12:45:20;;;;;;;30.23;17.38;;;13.00;20.40;;;;;;4994524;28;20569;-84
2022/11/11 12:48:01;;;;;;;26.92;17.42;;;13.10;19.50;;;;;;4994847;28;20026;-84
2022/11/11 12:50:39;;;;;;;26.05;16.55;;;13.10;19.40;;;;;;5000144;28;20080;-84
2022/11/11 12:53:51;;;;;;;24.83;15.63;;;13.10;18.60;;;;;;5014040;28;20469;-84
2022/11/11 12:56:31;;;;;;;27.15;16.25;;;13.10;19.30;;;;;;5009182;28;20100;-84
2022/11/11 12:59:29;;;;;;;29.48;16.88;;;13.00;17.20;;;;;;5014094;28;20058;-84
2022/11/11 13:02:24;;;;;;;28.00;16.73;;;13.10;17.70;;;;;;5002513;28;20110;-84
2022/11/11 13:05:10;;;;;;;27.83;16.83;;;13.00;17.60;;;;;;4990833;28;20041;-85
2022/11/11 13:07:58;;;;;;;27.08;15.48;;;13.10;10.50;;;;;;5006786;28;20026;-84
2022/11/11 13:10:44;;;;;;;27.13;15.20;;;13.10;17.40;;;;;;5004273;28;20097;-85
2022/11/11 13:13:45;;;;;;;27.42;16.38;;;13.00;19.30;;;;;;5011844;28;20057;-85
2022/11/11 13:16:11;;;;;;;28.52;15.88;;;13.00;12.70;;;;;;5004379;28;20049;-85
2022/11/11 13:18:49;;;;;;;23.80;15.02;;;13.00;25.90;;;;;;5008862;28;20225;-85
2022/11/11 13:21:41;;;;;;;24.55;14.65;;;13.00;19.40;;;;;;5014046;28;20041;-84
2022/11/11 13:24:12;;;;;;;25.02;13.38;;;13.00;15.00;;;;;;5013669;28;20507;-84
2022/11/11 13:26:51;;;;;;;20.17;12.43;;;13.00;21.20;;;;;;5013723;28;20473;-84
2022/11/11 13:29:41;;;;;;;21.10;12.90;;;12.90;20.30;;;;;;5005510;28;20018;-84
2022/11/11 13:32:11;;;;;;;24.15;15.10;;;12.90;21.10;;;;;;4994538;28;20033;-84
2022/11/11 13:34:39;;;;;;;26.17;15.63;;;12.80;22.90;;;;;;4997825;28;20033;-84
2022/11/11 13:37:08;;;;;;;26.02;15.48;;;12.90;19.50;;;;;;5017236;28;20104;-84
2022/11/11 13:39:40;;;;;;;25.70;15.18;;;12.80;22.50;;;;;;5016728;28;20380;-84
2022/11/11 13:42:08;;;;;;;26.70;15.38;;;12.80;24.60;;;;;;5018990;28;20038;-84
2022/11/11 13:44:56;;;;;;;25.90;15.80;;;12.70;16.70;;;;;;5015552;28;20480;-84
2022/11/11 13:47:28;;;;;;;25.85;16.33;;;12.70;23.50;;;;;;5037829;28;20887;-84
2022/11/11 13:50:23;;;;;;;27.55;16.60;;;12.70;24.30;;;;;;5011255;28;20493;-84
2022/11/11 13:53:04;;;;;;;26.83;16.30;;;12.70;28.60;;;;;;4989917;28;20050;-84
2022/11/11 13:55:36;;;;;;;31.95;15.43;;;12.60;30.20;;;;;;5022047;28;20639;-84
2022/11/11 13:58:03;;;;;;;27.90;16.42;;;12.60;27.80;;;;;;5014103;28;20084;-83
2022/11/11 14:00:35;;;;;;;24.92;15.30;;;12.60;35.00;;;;;;4998741;28;20504;-84
2022/11/11 14:03:16;;;;;;;26.20;14.65;;;12.60;37.00;;;;;;5002699;28;20032;-84
2022/11/11 14:05:43;;;;;;;28.50;15.85;;;12.60;42.40;;;;;;5019035;28;20385;-83
2022/11/11 14:08:09;;;;;;;25.90;15.48;;;12.50;35.30;;;;;;4999742;28;20037;-83